ETOU/WIE METAR and TAF weather

Enter ICAO airport designator
Station Type Date Time Source
ETOU METAR 2021/09/28 14:56 UTC NOAA

ETOU 281456Z AUTO 08004KT 9999 CLR M M RMK AO2 SLPNO RVRNO TSNO $


Station Type Date Time Source
ETOU Decoded METAR 2021/09/28 14:56 UTC NOAA

Wiesbaden, Germany (ETOU) 50-03N 008-20E
Sep 28, 2021 - 10:56 AM EDT / 2021.09.28 1456 UTC
Wind: from the E (080 degrees) at 5 MPH (4 KT):0
Visibility: greater than 7 mile(s):0
Sky conditions: clear
ob: ETOU 281456Z AUTO 08004KT 9999 CLR M M RMK AO2 SLPNO RVRNO TSNO
cycle: 15

Station Type Date Time Source
ETOU TAF 2021/09/28 12:15 UTC NOAA

TAF TAF ETOU 281200Z 2812/2918 VRB05KT 9999 FEW030 BKN040 QNH3016INS
BECMG 2819/2820 07008KT 9999 SCT080 QNH3011INS
BECMG 2822/2823 VRB06KT 9999 FEW020 BKN060 QNH3005INS
BECMG 2902/2903 19006KT 9999 BKN015 OVC030 QNH3005INS
TEMPO 2903/2905 OVC013
BECMG 2905/2906 22012G18KT 9999 BKN025 510003 QNH3005INS
BECMG 2911/2912 24012G18KT 9000 -SHRA SCT025 BKN035 510003 QNH3005INS
BECMG 2916/2917 27010G15KT 9999 NSW SCT030 BKN040 QNH3007INS TX20/2814Z TN12/2903Z

Example: see airport list